Ana Sayfa
METAR-TAF:

METAR-TAF

Havaalanları :

Provincetown Municipal Airport

Provincetown, Massachusetts, Amerika Birleşik Devletleri

Enlem: 42-04N, Boylam: 070-13W, yükseklik: 2 m

Güncel hava durumu gözlemi

Rapor saat 01:09 UTC de 16 dakika önce yapıldı.
Rüzgar güney/güneydoğudan 7 kt
Sıcaklık 17°C
Nem 94%
Basınç 1011 hPa
Görüş mesafesi: 16.1 km
400 ft yükseklikte az bulutlu

METAR: KPVC 200109Z AUTO 16007KT 10SM FEW004 17/16 A2984 RMK AO2 PNO $

Saat: 21:25 (01:25 UTC)


TAF: eksik

4.000'den fazla havaalanı için hava durumu gözlemleri ve tahminleri (METAR ve TAF raporları).

Kullanılabilir istasyonlar harita üzerinde sarı ve kırmızı noktalarla gösterilir.

İstasyonun adını görmek için fareyi noktanın üzerinde gezdirin.

Sonrasında hava gözlem ve tahminlerini görmek için tıklayın.

Haritayı değiştirmek için: yaklaştırmak için siyah artı işaretli yeşil düğmeye ve uzaklaştırmak için de eksi işaretli düğmeye hızla tıklayın; bitişik haritalar için yeşil okları kullanın.


METAR-TAF: